Time;durP1;ratioP1;P1;durP2;ratioP2;P2;SDS_P1;SDS_P2;PMS_P1;PMS_P2;Temp;Humidity;BMP_temperature;BMP_pressure;BME280_temperature;BME280_humidity;BME280_pressure;Samples;Min_cycle;Max_cycle;Signal;HPM_P1;HPM_P2
2022/12/23 00:00:59;;;;;;;;;;;;;;;;;;1881992;28;8548;-63
2022/12/23 00:01:56;;;;;;;;;;;;;;;;;;1880634;28;7014;-63
2022/12/23 00:02:54;;;;;;;;;;;;;;;;;;1881694;28;7005;-63
2022/12/23 00:03:55;;;;;;;;;;;;;;;;;;1882016;28;7168;-64
2022/12/23 00:04:52;;;;;;;;;;;;;;;;;;1881148;28;7162;-63
2022/12/23 00:05:50;;;;;;;;;;;;;;;;;;1882342;28;7073;-64
2022/12/23 00:06:47;;;;;;;;;;;;;;;;;;1881911;28;7120;-63
2022/12/23 00:07:45;;;;;;;;;;;;;;;;;;1881747;28;7110;-63
2022/12/23 00:08:43;;;;;;;;;;;;;;;;;;1882550;28;7988;-64
2022/12/23 00:09:40;;;;;;;;;;;;;;;;;;1881855;28;7006;-62
2022/12/23 00:10:38;;;;;;;;;;;;;;;;;;1881494;28;7109;-62
2022/12/23 00:15:03;;;;;;;;;;;;;;;;;;1880869;28;7043;-63
2022/12/23 00:15:24;;;;;;;;;;;;;;;;;;1882321;28;7377;-64
2022/12/23 00:16:22;;;;;;;;;;;;;;;;;;1882051;28;7101;-63
2022/12/23 00:17:19;;;;;;;;;;;;;;;;;;1882339;28;7029;-64
2022/12/23 00:18:19;;;;;;;;;;;;;;;;;;1881610;28;7147;-63
2022/12/23 00:19:16;;;;;;;;;;;;;;;;;;1880204;28;7180;-63
2022/12/23 00:20:14;;;;;;;;;;;;;;;;;;1881872;28;7097;-64
2022/12/23 00:21:13;;;;;;;;;;;;;;;;;;1882048;28;7097;-63
2022/12/23 00:22:11;;;;;;;;;;;;;;;;;;1882124;28;8034;-63
2022/12/23 00:23:08;;;;;;;;;;;;;;;;;;1881559;28;7002;-62
2022/12/23 00:24:06;;;;;;;;;;;;;;;;;;1881499;28;7042;-62
2022/12/23 00:25:03;;;;;;;;;;;;;;;;;;1881912;28;7093;-64
2022/12/23 00:26:01;;;;;;;;;;;;;;;;;;1880972;28;7093;-62
2022/12/23 00:26:59;;;;;;;;;;;;;;;;;;1881949;28;7006;-64
2022/12/23 00:28:02;;;;;;;;;;;;;;;;;;1881365;28;7001;-62
2022/12/23 00:29:00;;;;;;;;;;;;;;;;;;1881918;28;7108;-62
2022/12/23 00:29:57;;;;;;;;;;;;;;;;;;1881544;28;7014;-64
2022/12/23 00:30:55;;;;;;;;;;;;;;;;;;1882034;28;7114;-64
2022/12/23 00:31:52;;;;;;;;;;;;;;;;;;1881500;28;7088;-63
2022/12/23 00:32:49;;;;;;;;;;;;;;;;;;1882415;28;7042;-63
2022/12/23 00:33:48;;;;;;;;;;;;;;;;;;1881042;28;7089;-64
2022/12/23 00:34:45;;;;;;;;;;;;;;;;;;1881825;28;7396;-64
2022/12/23 00:35:43;;;;;;;;;;;;;;;;;;1881733;28;8123;-63
2022/12/23 00:36:41;;;;;;;;;;;;;;;;;;1881989;28;7301;-63
2022/12/23 00:37:38;;;;;;;;;;;;;;;;;;1881867;28;7006;-64
2022/12/23 00:43:44;;;;;;;;;;;;;;;;;;1873037;29;7127;-63
2022/12/23 00:44:41;;;;;;;;;;;;;;;;;;1874664;29;7100;-63
2022/12/23 00:45:39;;;;;;;;;;;;;;;;;;1874500;29;8115;-64
2022/12/23 00:46:36;;;;;;;;;;;;;;;;;;1874717;29;7998;-63
2022/12/23 00:50:06;;;;;;;;;;;;;;;;;;1873574;29;7010;-63
2022/12/23 00:51:03;;;;;;;;;;;;;;;;;;1874967;28;7757;-62
2022/12/23 00:52:01;;;;;;;;;;;;;;;;;;1873957;29;7102;-62
2022/12/23 00:52:58;;;;;;;;;;;;;;;;;;1873379;29;7424;-64
2022/12/23 00:53:56;;;;;;;;;;;;;;;;;;1874799;28;7128;-63
2022/12/23 00:54:53;;;;;;;;;;;;;;;;;;1874542;28;7006;-62
2022/12/23 00:55:51;;;;;;;;;;;;;;;;;;1874470;28;8133;-63
2022/12/23 00:56:48;;;;;;;;;;;;;;;;;;1874650;28;7006;-62
2022/12/23 00:57:46;;;;;;;;;;;;;;;;;;1874883;28;8183;-63
2022/12/23 00:58:43;;;;;;;;;;;;;;;;;;1874276;29;7097;-63
2022/12/23 00:59:40;;;;;;;;;;;;;;;;;;1874873;28;7172;-63
2022/12/23 01:05:43;;;;;;;;;;;;;;;;;;1873275;29;7042;-62
2022/12/23 01:06:40;;;;;;;;;;;;;;;;;;1873478;29;8132;-64
2022/12/23 01:07:38;;;;;;;;;;;;;;;;;;1874434;28;7089;-62
2022/12/23 01:08:36;;;;;;;;;;;;;;;;;;1874534;29;7348;-63
2022/12/23 01:09:34;;;;;;;;;;;;;;;;;;1874309;28;8119;-64
2022/12/23 01:10:33;;;;;;;;;;;;;;;;;;1874126;28;7006;-64
2022/12/23 01:11:31;;;;;;;;;;;;;;;;;;1874789;29;7165;-64
2022/12/23 01:12:28;;;;;;;;;;;;;;;;;;1874590;28;7092;-63
2022/12/23 01:13:26;;;;;;;;;;;;;;;;;;1874568;29;7096;-63
2022/12/23 01:14:23;;;;;;;;;;;;;;;;;;1874989;28;8054;-64
2022/12/23 01:15:21;;;;;;;;;;;;;;;;;;1874524;29;7158;-64
2022/12/23 01:16:18;;;;;;;;;;;;;;;;;;1874611;28;9142;-64
2022/12/23 01:17:16;;;;;;;;;;;;;;;;;;1873146;29;7089;-63
2022/12/23 01:18:13;;;;;;;;;;;;;;;;;;1874886;29;7006;-63
2022/12/23 01:19:10;;;;;;;;;;;;;;;;;;1874285;29;7089;-63
2022/12/23 01:20:09;;;;;;;;;;;;;;;;;;1874622;29;7191;-64
2022/12/23 01:21:08;;;;;;;;;;;;;;;;;;1874192;29;7002;-62
2022/12/23 01:22:05;;;;;;;;;;;;;;;;;;1874571;28;7026;-62
2022/12/23 01:23:03;;;;;;;;;;;;;;;;;;1875707;28;7109;-64
2022/12/23 01:24:00;;;;;;;;;;;;;;;;;;1875604;28;7085;-63
2022/12/23 01:24:57;;;;;;;;;;;;;;;;;;1876010;28;7108;-61
2022/12/23 01:25:58;;;;;;;;;;;;;;;;;;1875603;28;7062;-62
2022/12/23 01:26:56;;;;;;;;;;;;;;;;;;1875220;28;7038;-63
2022/12/23 01:27:53;;;;;;;;;;;;;;;;;;1874260;28;7129;-62
2022/12/23 01:28:54;;;;;;;;;;;;;;;;;;1867897;29;7006;-63
2022/12/23 01:29:52;;;;;;;;;;;;;;;;;;1875068;28;9119;-64
2022/12/23 01:30:49;;;;;;;;;;;;;;;;;;1875945;28;8020;-64
2022/12/23 01:31:46;;;;;;;;;;;;;;;;;;1875574;28;7097;-63
2022/12/23 01:32:44;;;;;;;;;;;;;;;;;;1875898;28;7059;-63
2022/12/23 01:33:41;;;;;;;;;;;;;;;;;;1874733;28;8517;-62
2022/12/23 01:34:39;;;;;;;;;;;;;;;;;;1870299;28;7092;-64
2022/12/23 01:35:36;;;;;;;;;;;;;;;;;;1875297;28;7617;-63
2022/12/23 01:36:33;;;;;;;;;;;;;;;;;;1874548;28;7038;-62
2022/12/23 01:37:31;;;;;;;;;;;;;;;;;;1875914;28;8036;-63
2022/12/23 01:38:28;;;;;;;;;;;;;;;;;;1875532;28;7029;-63
2022/12/23 01:39:26;;;;;;;;;;;;;;;;;;1875535;28;7212;-64
2022/12/23 01:40:23;;;;;;;;;;;;;;;;;;1875443;28;7070;-62
2022/12/23 01:42:45;;;;;;;;;;;;;;;;;;1876074;28;7087;-63
2022/12/23 01:43:48;;;;;;;;;;;;;;;;;;1882511;28;8996;-64
2022/12/23 01:44:45;;;;;;;;;;;;;;;;;;1883756;28;7013;-63
2022/12/23 01:45:43;;;;;;;;;;;;;;;;;;1888046;28;7113;-62
2022/12/23 01:46:41;;;;;;;;;;;;;;;;;;1888623;28;7054;-63
2022/12/23 01:47:38;;;;;;;;;;;;;;;;;;1890293;28;7030;-64
2022/12/23 01:48:36;;;;;;;;;;;;;;;;;;1889972;28;7014;-63
2022/12/23 01:49:34;;;;;;;;;;;;;;;;;;1887778;28;7014;-63
2022/12/23 01:50:35;;;;;;;;;;;;;;;;;;1884470;28;7006;-63
2022/12/23 01:51:32;;;;;;;;;;;;;;;;;;1885149;28;7152;-63
2022/12/23 01:52:33;;;;;;;;;;;;;;;;;;1884226;28;7009;-62
2022/12/23 01:53:34;;;;;;;;;;;;;;;;;;1885760;28;7121;-63
2022/12/23 01:54:34;;;;;;;;;;;;;;;;;;1886206;28;7985;-63
2022/12/23 01:55:34;;;;;;;;;;;;;;;;;;1883269;28;7009;-63
2022/12/23 01:56:36;;;;;;;;;;;;;;;;;;1882848;28;7214;-64
2022/12/23 01:57:38;;;;;;;;;;;;;;;;;;1887314;28;7010;-62
2022/12/23 01:58:42;;;;;;;;;;;;;;;;;;1886976;28;8003;-63
2022/12/23 02:03:41;;;;;;;;;;;;;;;;;;1887433;28;7116;-64
2022/12/23 02:04:39;;;;;;;;;;;;;;;;;;1883254;28;7563;-62
2022/12/23 02:05:37;;;;;;;;;;;;;;;;;;1883624;28;7109;-62
2022/12/23 02:09:34;;;;;;;;;;;;;;;;;;1886273;28;7363;-63
2022/12/23 02:10:40;;;;;;;;;;;;;;;;;;1885970;28;7089;-63
2022/12/23 02:11:48;;;;;;;;;;;;;;;;;;1882997;28;7093;-62
2022/12/23 02:13:00;;;;;;;;;;;;;;;;;;1882880;28;7079;-64
2022/12/23 02:17:14;;;;;;;;;;;;;;;;;;1886826;28;7109;-63
2022/12/23 02:18:17;;;;;;;;;;;;;;;;;;1884716;28;7096;-62
2022/12/23 02:19:25;;;;;;;;;;;;;;;;;;1890650;28;7017;-62
2022/12/23 02:20:26;;;;;;;;;;;;;;;;;;1888594;28;7136;-63
2022/12/23 02:21:29;;;;;;;;;;;;;;;;;;1882622;28;7022;-62
2022/12/23 02:22:45;;;;;;;;;;;;;;;;;;1887806;28;7002;-64
2022/12/23 02:23:42;;;;;;;;;;;;;;;;;;1885279;28;8036;-64
2022/12/23 02:24:58;;;;;;;;;;;;;;;;;;1886420;28;7006;-63
2022/12/23 02:26:04;;;;;;;;;;;;;;;;;;1884969;28;7006;-64
2022/12/23 02:27:04;;;;;;;;;;;;;;;;;;1884569;28;7120;-62
2022/12/23 02:28:04;;;;;;;;;;;;;;;;;;1888867;28;8049;-64
2022/12/23 02:29:20;;;;;;;;;;;;;;;;;;1886124;28;7097;-63
2022/12/23 02:30:36;;;;;;;;;;;;;;;;;;1886895;28;7026;-63
2022/12/23 02:31:54;;;;;;;;;;;;;;;;;;1883491;28;7317;-62
2022/12/23 02:33:17;;;;;;;;;;;;;;;;;;1888095;28;7002;-62
2022/12/23 02:34:14;;;;;;;;;;;;;;;;;;1880560;28;7484;-62
2022/12/23 02:35:12;;;;;;;;;;;;;;;;;;1884151;28;8398;-63
2022/12/23 02:36:15;;;;;;;;;;;;;;;;;;1882802;28;7113;-63
2022/12/23 02:37:28;;;;;;;;;;;;;;;;;;1887784;28;7038;-64
2022/12/23 02:38:45;;;;;;;;;;;;;;;;;;1889757;28;7034;-62
2022/12/23 02:39:43;;;;;;;;;;;;;;;;;;1882374;28;8009;-64
2022/12/23 02:41:06;;;;;;;;;;;;;;;;;;1886299;28;7002;-62
2022/12/23 02:42:09;;;;;;;;;;;;;;;;;;1887432;28;8046;-63
2022/12/23 02:43:09;;;;;;;;;;;;;;;;;;1889281;28;7117;-62
2022/12/23 02:44:23;;;;;;;;;;;;;;;;;;1890165;28;8510;-64
2022/12/23 02:45:39;;;;;;;;;;;;;;;;;;1881998;28;7128;-63
2022/12/23 02:46:49;;;;;;;;;;;;;;;;;;1885829;28;7018;-63
2022/12/23 02:47:53;;;;;;;;;;;;;;;;;;1884969;28;7141;-63
2022/12/23 02:49:00;;;;;;;;;;;;;;;;;;1883062;28;7148;-62
2022/12/23 02:50:02;;;;;;;;;;;;;;;;;;1888121;28;7088;-63
2022/12/23 02:51:01;;;;;;;;;;;;;;;;;;1882135;28;7018;-63
2022/12/23 02:52:02;;;;;;;;;;;;;;;;;;1885594;28;7050;-63
2022/12/23 02:53:08;;;;;;;;;;;;;;;;;;1887401;28;7005;-62
2022/12/23 02:54:09;;;;;;;;;;;;;;;;;;1890222;28;7013;-62
2022/12/23 02:55:13;;;;;;;;;;;;;;;;;;1882345;28;7093;-63
2022/12/23 02:56:14;;;;;;;;;;;;;;;;;;1882506;28;7096;-63
2022/12/23 02:57:15;;;;;;;;;;;;;;;;;;1884337;28;7010;-63
2022/12/23 02:58:16;;;;;;;;;;;;;;;;;;1888236;28;7013;-62
2022/12/23 02:59:21;;;;;;;;;;;;;;;;;;1882747;28;7124;-64
2022/12/23 03:00:18;;;;;;;;;;;;;;;;;;1882564;28;7046;-62
2022/12/23 03:01:18;;;;;;;;;;;;;;;;;;1886778;28;7050;-63
2022/12/23 03:02:16;;;;;;;;;;;;;;;;;;1888493;28;7018;-63
2022/12/23 03:03:15;;;;;;;;;;;;;;;;;;1886371;28;7055;-63
2022/12/23 03:04:14;;;;;;;;;;;;;;;;;;1885320;28;7043;-63
2022/12/23 03:05:29;;;;;;;;;;;;;;;;;;1890056;28;7308;-64
2022/12/23 03:06:27;;;;;;;;;;;;;;;;;;1890010;28;7042;-64
2022/12/23 03:07:38;;;;;;;;;;;;;;;;;;1888918;28;7997;-63
2022/12/23 03:08:41;;;;;;;;;;;;;;;;;;1881586;28;8031;-62
2022/12/23 03:09:59;;;;;;;;;;;;;;;;;;1889842;28;7439;-63
2022/12/23 03:10:56;;;;;;;;;;;;;;;;;;1885123;28;7097;-64
2022/12/23 03:11:53;;;;;;;;;;;;;;;;;;1889670;28;7112;-64
2022/12/23 03:12:51;;;;;;;;;;;;;;;;;;1890262;28;7451;-63
2022/12/23 03:14:07;;;;;;;;;;;;;;;;;;1889772;28;7197;-63
2022/12/23 03:15:13;;;;;;;;;;;;;;;;;;1884306;28;7117;-63
2022/12/23 03:16:28;;;;;;;;;;;;;;;;;;1890275;28;7101;-63
2022/12/23 03:17:44;;;;;;;;;;;;;;;;;;1886708;28;7152;-64
2022/12/23 03:18:44;;;;;;;;;;;;;;;;;;1882575;28;7002;-64
2022/12/23 03:19:48;;;;;;;;;;;;;;;;;;1882798;28;7092;-63
2022/12/23 03:20:53;;;;;;;;;;;;;;;;;;1885832;28;7006;-63
2022/12/23 03:21:53;;;;;;;;;;;;;;;;;;1886182;28;7093;-62
2022/12/23 03:23:05;;;;;;;;;;;;;;;;;;1884730;28;7151;-62
2022/12/23 03:24:22;;;;;;;;;;;;;;;;;;1886815;28;7001;-63
2022/12/23 03:25:28;;;;;;;;;;;;;;;;;;1880647;28;7042;-63
2022/12/23 03:26:32;;;;;;;;;;;;;;;;;;1885816;28;8972;-63
2022/12/23 03:27:36;;;;;;;;;;;;;;;;;;1887660;28;7121;-64
2022/12/23 03:28:48;;;;;;;;;;;;;;;;;;1886031;28;8046;-63
2022/12/23 03:29:45;;;;;;;;;;;;;;;;;;1882611;28;7093;-63
2022/12/23 03:30:47;;;;;;;;;;;;;;;;;;1882444;28;8018;-63
2022/12/23 03:31:46;;;;;;;;;;;;;;;;;;1881845;28;7006;-63
2022/12/23 03:32:56;;;;;;;;;;;;;;;;;;1882794;28;7125;-64
2022/12/23 03:34:04;;;;;;;;;;;;;;;;;;1886353;28;7046;-64
2022/12/23 03:35:05;;;;;;;;;;;;;;;;;;1883426;28;7097;-63
2022/12/23 03:36:11;;;;;;;;;;;;;;;;;;1888899;28;8106;-63
2022/12/23 03:37:10;;;;;;;;;;;;;;;;;;1883575;28;8010;-63
2022/12/23 03:38:11;;;;;;;;;;;;;;;;;;1886203;28;7018;-64
2022/12/23 03:39:13;;;;;;;;;;;;;;;;;;1882788;28;7043;-64
2022/12/23 03:40:17;;;;;;;;;;;;;;;;;;1886140;28;7017;-62
2022/12/23 03:41:26;;;;;;;;;;;;;;;;;;1887639;28;8051;-63
2022/12/23 03:42:31;;;;;;;;;;;;;;;;;;1882501;28;8000;-64
2022/12/23 03:43:32;;;;;;;;;;;;;;;;;;1881575;28;7114;-63
2022/12/23 03:44:35;;;;;;;;;;;;;;;;;;1882669;28;7339;-63
2022/12/23 03:45:37;;;;;;;;;;;;;;;;;;1881556;28;7116;-64
2022/12/23 03:46:45;;;;;;;;;;;;;;;;;;1882244;28;7009;-63
2022/12/23 03:47:49;;;;;;;;;;;;;;;;;;1880956;28;7050;-62
2022/12/23 03:48:50;;;;;;;;;;;;;;;;;;1872090;28;7121;-64
2022/12/23 03:49:52;;;;;;;;;;;;;;;;;;1877238;28;8443;-62
2022/12/23 03:50:53;;;;;;;;;;;;;;;;;;1882243;28;7078;-63
2022/12/23 03:51:55;;;;;;;;;;;;;;;;;;1882480;28;7037;-63
2022/12/23 03:53:11;;;;;;;;;;;;;;;;;;1883067;28;8035;-63
2022/12/23 03:54:16;;;;;;;;;;;;;;;;;;1882783;28;7026;-63
2022/12/23 03:55:18;;;;;;;;;;;;;;;;;;1882652;28;7344;-65
2022/12/23 03:56:20;;;;;;;;;;;;;;;;;;1882215;28;7128;-63
2022/12/23 03:57:21;;;;;;;;;;;;;;;;;;1882544;28;7029;-64
2022/12/23 03:58:36;;;;;;;;;;;;;;;;;;1882977;28;7009;-64
2022/12/23 03:59:37;;;;;;;;;;;;;;;;;;1882810;28;7995;-63
2022/12/23 04:00:41;;;;;;;;;;;;;;;;;;1881987;28;7197;-62
2022/12/23 04:01:38;;;;;;;;;;;;;;;;;;1882014;28;7092;-63
2022/12/23 04:02:46;;;;;;;;;;;;;;;;;;1882405;28;8006;-64
2022/12/23 04:03:59;;;;;;;;;;;;;;;;;;1881246;28;7046;-64
2022/12/23 04:04:56;;;;;;;;;;;;;;;;;;1882185;28;7078;-64
2022/12/23 04:05:58;;;;;;;;;;;;;;;;;;1882123;28;7443;-63
2022/12/23 04:07:04;;;;;;;;;;;;;;;;;;1882228;28;7013;-62
2022/12/23 04:08:07;;;;;;;;;;;;;;;;;;1882208;28;7104;-64
2022/12/23 04:09:06;;;;;;;;;;;;;;;;;;1882209;28;7089;-64
2022/12/23 04:10:05;;;;;;;;;;;;;;;;;;1882250;28;7203;-63
2022/12/23 04:11:03;;;;;;;;;;;;;;;;;;1882396;28;9072;-63
2022/12/23 04:12:00;;;;;;;;;;;;;;;;;;1882194;28;7006;-64
2022/12/23 04:12:58;;;;;;;;;;;;;;;;;;1882172;28;7109;-64
2022/12/23 04:13:55;;;;;;;;;;;;;;;;;;1881992;28;8238;-63
2022/12/23 04:14:53;;;;;;;;;;;;;;;;;;1882157;28;8041;-62
2022/12/23 04:15:50;;;;;;;;;;;;;;;;;;1881911;28;7010;-63
2022/12/23 04:16:52;;;;;;;;;;;;;;;;;;1880840;28;7010;-63
2022/12/23 04:17:50;;;;;;;;;;;;;;;;;;1882537;28;7006;-62
2022/12/23 04:18:48;;;;;;;;;;;;;;;;;;1882386;28;7113;-63
2022/12/23 04:19:46;;;;;;;;;;;;;;;;;;1882025;28;8026;-64
2022/12/23 04:20:43;;;;;;;;;;;;;;;;;;1882350;28;7010;-62
2022/12/23 04:21:40;;;;;;;;;;;;;;;;;;1882656;28;8036;-63
2022/12/23 04:22:38;;;;;;;;;;;;;;;;;;1881295;28;8034;-62
2022/12/23 04:23:35;;;;;;;;;;;;;;;;;;1881907;28;7124;-64
2022/12/23 04:24:33;;;;;;;;;;;;;;;;;;1882443;28;7113;-63
2022/12/23 04:25:30;;;;;;;;;;;;;;;;;;1881881;28;7010;-62
2022/12/23 04:26:28;;;;;;;;;;;;;;;;;;1881947;28;7121;-64
2022/12/23 04:27:25;;;;;;;;;;;;;;;;;;1881805;28;7010;-64
2022/12/23 04:28:22;;;;;;;;;;;;;;;;;;1881854;28;7018;-63
2022/12/23 04:29:20;;;;;;;;;;;;;;;;;;1881569;28;8610;-63
2022/12/23 04:30:17;;;;;;;;;;;;;;;;;;1882171;28;8512;-62
2022/12/23 04:31:15;;;;;;;;;;;;;;;;;;1882297;28;8053;-64
2022/12/23 04:32:12;;;;;;;;;;;;;;;;;;1882926;28;7006;-64
2022/12/23 04:33:10;;;;;;;;;;;;;;;;;;1881922;28;7022;-63
2022/12/23 04:34:08;;;;;;;;;;;;;;;;;;1881628;28;8072;-62
2022/12/23 04:35:05;;;;;;;;;;;;;;;;;;1881845;28;7320;-63
2022/12/23 04:36:03;;;;;;;;;;;;;;;;;;1882032;28;7105;-64
2022/12/23 04:37:00;;;;;;;;;;;;;;;;;;1882553;28;7002;-63
2022/12/23 04:37:59;;;;;;;;;;;;;;;;;;1882133;28;8097;-64
2022/12/23 04:38:56;;;;;;;;;;;;;;;;;;1880690;28;7013;-64
2022/12/23 04:39:53;;;;;;;;;;;;;;;;;;1881873;28;7013;-63
2022/12/23 04:40:51;;;;;;;;;;;;;;;;;;1881526;28;7052;-64
2022/12/23 04:41:48;;;;;;;;;;;;;;;;;;1882263;28;7097;-64
2022/12/23 04:42:45;;;;;;;;;;;;;;;;;;1883268;28;7171;-65
2022/12/23 04:43:43;;;;;;;;;;;;;;;;;;1887190;28;7142;-63
2022/12/23 04:44:48;;;;;;;;;;;;;;;;;;1874298;28;7904;-63
2022/12/23 04:45:49;;;;;;;;;;;;;;;;;;1874391;28;7034;-62
2022/12/23 04:46:46;;;;;;;;;;;;;;;;;;1881910;28;7014;-64
2022/12/23 04:47:44;;;;;;;;;;;;;;;;;;1882238;28;7005;-62
2022/12/23 04:48:41;;;;;;;;;;;;;;;;;;1885059;28;7124;-63
2022/12/23 04:49:39;;;;;;;;;;;;;;;;;;1888916;28;7328;-64
2022/12/23 04:50:36;;;;;;;;;;;;;;;;;;1884271;28;7100;-62
2022/12/23 04:51:33;;;;;;;;;;;;;;;;;;1882627;28;7093;-63
2022/12/23 04:52:31;;;;;;;;;;;;;;;;;;1883228;28;7081;-64
2022/12/23 04:53:28;;;;;;;;;;;;;;;;;;1886923;28;7074;-63
2022/12/23 04:54:25;;;;;;;;;;;;;;;;;;1883592;28;7025;-62
2022/12/23 04:55:23;;;;;;;;;;;;;;;;;;1884944;28;7014;-64
2022/12/23 04:56:20;;;;;;;;;;;;;;;;;;1882076;28;7037;-63
2022/12/23 04:57:18;;;;;;;;;;;;;;;;;;1883610;28;8365;-62
2022/12/23 04:58:15;;;;;;;;;;;;;;;;;;1883612;28;7010;-63
2022/12/23 04:59:12;;;;;;;;;;;;;;;;;;1875394;28;7010;-64
2022/12/23 05:00:10;;;;;;;;;;;;;;;;;;1875657;28;7010;-63
2022/12/23 05:01:09;;;;;;;;;;;;;;;;;;1876715;28;7218;-63
2022/12/23 05:02:07;;;;;;;;;;;;;;;;;;1881095;28;7332;-63
2022/12/23 05:03:05;;;;;;;;;;;;;;;;;;1889817;28;7093;-64
2022/12/23 05:04:02;;;;;;;;;;;;;;;;;;1883306;28;7109;-64
2022/12/23 05:05:00;;;;;;;;;;;;;;;;;;1884726;28;7117;-62
2022/12/23 05:05:57;;;;;;;;;;;;;;;;;;1876697;28;7013;-63
2022/12/23 05:06:55;;;;;;;;;;;;;;;;;;1874463;28;7134;-62
2022/12/23 05:08:00;;;;;;;;;;;;;;;;;;1885841;28;8037;-62
2022/12/23 05:08:58;;;;;;;;;;;;;;;;;;1885080;28;8027;-62
2022/12/23 05:10:00;;;;;;;;;;;;;;;;;;1883677;28;7010;-62
2022/12/23 05:10:58;;;;;;;;;;;;;;;;;;1884611;28;7093;-64
2022/12/23 05:11:55;;;;;;;;;;;;;;;;;;1890775;28;7093;-63
2022/12/23 05:12:52;;;;;;;;;;;;;;;;;;1886056;28;7220;-64
2022/12/23 05:13:50;;;;;;;;;;;;;;;;;;1889922;28;7076;-62
2022/12/23 05:14:47;;;;;;;;;;;;;;;;;;1885264;28;8281;-64
2022/12/23 05:15:45;;;;;;;;;;;;;;;;;;1886396;28;7506;-64
2022/12/23 05:16:42;;;;;;;;;;;;;;;;;;1882836;28;8006;-64
2022/12/23 05:17:40;;;;;;;;;;;;;;;;;;1890407;28;7006;-63
2022/12/23 05:18:37;;;;;;;;;;;;;;;;;;1881884;28;7018;-64
2022/12/23 05:19:35;;;;;;;;;;;;;;;;;;1885334;28;7207;-62
2022/12/23 05:20:32;;;;;;;;;;;;;;;;;;1883495;28;7100;-63
2022/12/23 05:21:29;;;;;;;;;;;;;;;;;;1889061;28;7038;-63
2022/12/23 05:22:27;;;;;;;;;;;;;;;;;;1887548;28;7356;-64
2022/12/23 05:23:24;;;;;;;;;;;;;;;;;;1884461;28;8034;-64
2022/12/23 05:24:22;;;;;;;;;;;;;;;;;;1885769;28;7093;-63
2022/12/23 05:25:19;;;;;;;;;;;;;;;;;;1882811;28;7010;-63
2022/12/23 05:26:16;;;;;;;;;;;;;;;;;;1886892;28;7120;-63
2022/12/23 05:27:14;;;;;;;;;;;;;;;;;;1889257;28;7092;-63
2022/12/23 05:28:12;;;;;;;;;;;;;;;;;;1887604;28;7128;-63
2022/12/23 05:29:10;;;;;;;;;;;;;;;;;;1886190;28;7009;-63
2022/12/23 05:30:07;;;;;;;;;;;;;;;;;;1883368;28;7093;-62
2022/12/23 05:31:06;;;;;;;;;;;;;;;;;;1887544;28;7085;-64
2022/12/23 05:32:04;;;;;;;;;;;;;;;;;;1887511;28;7006;-63
2022/12/23 05:33:01;;;;;;;;;;;;;;;;;;1890291;28;7005;-63
2022/12/23 05:33:58;;;;;;;;;;;;;;;;;;1889439;28;7053;-64
2022/12/23 05:35:02;;;;;;;;;;;;;;;;;;1889285;28;7042;-64
2022/12/23 05:36:00;;;;;;;;;;;;;;;;;;1890095;28;7005;-62
2022/12/23 05:36:57;;;;;;;;;;;;;;;;;;1890680;28;8014;-63
2022/12/23 05:37:56;;;;;;;;;;;;;;;;;;1888361;28;7025;-63
2022/12/23 05:38:54;;;;;;;;;;;;;;;;;;1888481;28;8020;-63
2022/12/23 05:39:51;;;;;;;;;;;;;;;;;;1890241;28;7101;-63
2022/12/23 05:40:49;;;;;;;;;;;;;;;;;;1883912;28;7196;-63
2022/12/23 05:41:46;;;;;;;;;;;;;;;;;;1890087;28;8099;-64
2022/12/23 05:42:44;;;;;;;;;;;;;;;;;;1890324;28;8110;-64
2022/12/23 05:43:41;;;;;;;;;;;;;;;;;;1891015;28;8507;-62
2022/12/23 05:44:39;;;;;;;;;;;;;;;;;;1888876;28;7953;-63
2022/12/23 05:45:36;;;;;;;;;;;;;;;;;;1886832;28;7069;-63
2022/12/23 05:46:34;;;;;;;;;;;;;;;;;;1888132;28;7013;-64
2022/12/23 05:47:31;;;;;;;;;;;;;;;;;;1887650;28;7142;-64
2022/12/23 05:48:29;;;;;;;;;;;;;;;;;;1883221;28;7047;-64
2022/12/23 05:49:26;;;;;;;;;;;;;;;;;;1883505;28;7117;-64
2022/12/23 05:50:23;;;;;;;;;;;;;;;;;;1885607;28;7117;-62
2022/12/23 05:51:21;;;;;;;;;;;;;;;;;;1883505;28;7043;-63
2022/12/23 05:52:18;;;;;;;;;;;;;;;;;;1890276;28;7059;-63
2022/12/23 05:53:16;;;;;;;;;;;;;;;;;;1886347;28;7148;-62
2022/12/23 05:54:13;;;;;;;;;;;;;;;;;;1890432;28;7109;-63
2022/12/23 05:55:10;;;;;;;;;;;;;;;;;;1888014;28;7132;-62
2022/12/23 05:56:08;;;;;;;;;;;;;;;;;;1887897;28;7038;-62
2022/12/23 05:57:05;;;;;;;;;;;;;;;;;;1887777;28;8100;-61
2022/12/23 05:58:02;;;;;;;;;;;;;;;;;;1890091;28;7093;-63
2022/12/23 05:59:00;;;;;;;;;;;;;;;;;;1886340;28;7009;-64
2022/12/23 05:59:57;;;;;;;;;;;;;;;;;;1881944;28;9343;-63
2022/12/23 06:00:55;;;;;;;;;;;;;;;;;;1883744;28;7110;-63
2022/12/23 06:01:52;;;;;;;;;;;;;;;;;;1881806;28;7155;-63
2022/12/23 06:02:49;;;;;;;;;;;;;;;;;;1883956;28;7093;-63
2022/12/23 06:03:50;;;;;;;;;;;;;;;;;;1885786;28;7009;-64
2022/12/23 06:04:48;;;;;;;;;;;;;;;;;;1890550;28;7006;-62
2022/12/23 06:05:48;;;;;;;;;;;;;;;;;;1883767;28;8202;-62
2022/12/23 06:06:46;;;;;;;;;;;;;;;;;;1883677;28;7006;-64
2022/12/23 06:07:43;;;;;;;;;;;;;;;;;;1890613;28;7046;-63
2022/12/23 06:08:40;;;;;;;;;;;;;;;;;;1888137;28;8095;-62
2022/12/23 06:09:38;;;;;;;;;;;;;;;;;;1887986;28;7013;-62
2022/12/23 06:10:35;;;;;;;;;;;;;;;;;;1890707;28;7006;-63
2022/12/23 06:11:32;;;;;;;;;;;;;;;;;;1887857;28;8061;-64
2022/12/23 06:12:30;;;;;;;;;;;;;;;;;;1883884;28;8006;-63
2022/12/23 06:13:27;;;;;;;;;;;;;;;;;;1883087;28;7182;-62
2022/12/23 06:14:25;;;;;;;;;;;;;;;;;;1883293;28;7014;-64
2022/12/23 06:15:25;;;;;;;;;;;;;;;;;;1883321;28;7101;-62
2022/12/23 06:16:23;;;;;;;;;;;;;;;;;;1883251;28;7037;-62
2022/12/23 06:17:20;;;;;;;;;;;;;;;;;;1887622;28;8109;-63
2022/12/23 06:18:18;;;;;;;;;;;;;;;;;;1883640;28;7081;-62
2022/12/23 06:19:15;;;;;;;;;;;;;;;;;;1887926;28;8059;-63
2022/12/23 06:20:12;;;;;;;;;;;;;;;;;;1882109;28;8022;-64
2022/12/23 06:21:16;;;;;;;;;;;;;;;;;;1889429;28;7121;-63
2022/12/23 06:22:14;;;;;;;;;;;;;;;;;;1890233;28;7145;-63
2022/12/23 06:23:11;;;;;;;;;;;;;;;;;;1886611;28;7404;-63
2022/12/23 06:24:09;;;;;;;;;;;;;;;;;;1883534;28;7013;-63
2022/12/23 06:25:07;;;;;;;;;;;;;;;;;;1884260;28;7014;-63
2022/12/23 06:26:04;;;;;;;;;;;;;;;;;;1887959;28;7025;-62
2022/12/23 06:27:01;;;;;;;;;;;;;;;;;;1889160;28;7042;-61
2022/12/23 06:27:59;;;;;;;;;;;;;;;;;;1883136;28;7042;-63
2022/12/23 06:28:56;;;;;;;;;;;;;;;;;;1887891;28;7620;-63
2022/12/23 06:29:53;;;;;;;;;;;;;;;;;;1890030;28;7009;-62
2022/12/23 06:30:52;;;;;;;;;;;;;;;;;;1890189;28;7139;-63
2022/12/23 06:31:49;;;;;;;;;;;;;;;;;;1886021;28;7359;-63
2022/12/23 06:32:47;;;;;;;;;;;;;;;;;;1891263;28;7010;-63
2022/12/23 06:33:44;;;;;;;;;;;;;;;;;;1890479;28;7321;-64
2022/12/23 06:34:42;;;;;;;;;;;;;;;;;;1890168;28;7006;-63
2022/12/23 06:35:39;;;;;;;;;;;;;;;;;;1890189;28;7100;-64
2022/12/23 06:36:36;;;;;;;;;;;;;;;;;;1888447;28;7220;-63
2022/12/23 06:37:34;;;;;;;;;;;;;;;;;;1890329;28;8035;-63
2022/12/23 06:38:31;;;;;;;;;;;;;;;;;;1889674;28;7130;-63
2022/12/23 06:39:28;;;;;;;;;;;;;;;;;;1890171;28;7154;-62
2022/12/23 06:40:27;;;;;;;;;;;;;;;;;;1887728;28;7060;-64
2022/12/23 06:41:25;;;;;;;;;;;;;;;;;;1889176;28;7010;-63
2022/12/23 06:42:22;;;;;;;;;;;;;;;;;;1885702;28;7305;-64
2022/12/23 06:43:20;;;;;;;;;;;;;;;;;;1887222;28;8058;-64
2022/12/23 06:44:17;;;;;;;;;;;;;;;;;;1890911;28;7094;-63
2022/12/23 06:45:15;;;;;;;;;;;;;;;;;;1886753;28;7120;-63
2022/12/23 06:46:12;;;;;;;;;;;;;;;;;;1883443;28;7013;-62
2022/12/23 06:47:10;;;;;;;;;;;;;;;;;;1882745;28;7386;-64
2022/12/23 06:48:07;;;;;;;;;;;;;;;;;;1882937;28;7006;-62
2022/12/23 06:49:05;;;;;;;;;;;;;;;;;;1882778;28;7120;-64
2022/12/23 06:50:09;;;;;;;;;;;;;;;;;;1884054;28;8037;-62
2022/12/23 06:51:07;;;;;;;;;;;;;;;;;;1888861;28;8000;-62
2022/12/23 06:52:05;;;;;;;;;;;;;;;;;;1890432;28;7005;-63
2022/12/23 06:53:02;;;;;;;;;;;;;;;;;;1890575;28;8217;-62
2022/12/23 06:54:00;;;;;;;;;;;;;;;;;;1887761;28;7159;-63
2022/12/23 06:54:57;;;;;;;;;;;;;;;;;;1887443;28;7002;-63
2022/12/23 06:55:58;;;;;;;;;;;;;;;;;;1883088;28;7116;-64
2022/12/23 06:56:56;;;;;;;;;;;;;;;;;;1885035;28;8034;-64
2022/12/23 06:57:53;;;;;;;;;;;;;;;;;;1885228;28;8000;-63
2022/12/23 06:58:53;;;;;;;;;;;;;;;;;;1888002;28;7093;-63
2022/12/23 06:59:51;;;;;;;;;;;;;;;;;;1883067;28;8007;-62
2022/12/23 07:00:48;;;;;;;;;;;;;;;;;;1884583;28;7139;-62
2022/12/23 07:01:46;;;;;;;;;;;;;;;;;;1889540;28;7011;-64
2022/12/23 07:02:43;;;;;;;;;;;;;;;;;;1890334;28;7021;-63
2022/12/23 07:03:41;;;;;;;;;;;;;;;;;;1882974;28;7026;-63
2022/12/23 07:04:38;;;;;;;;;;;;;;;;;;1883498;28;8046;-62
2022/12/23 07:05:36;;;;;;;;;;;;;;;;;;1882314;28;7010;-63
2022/12/23 07:06:34;;;;;;;;;;;;;;;;;;1887995;28;7041;-64
2022/12/23 07:07:31;;;;;;;;;;;;;;;;;;1888266;28;7046;-62
2022/12/23 07:08:29;;;;;;;;;;;;;;;;;;1889946;28;7076;-64
2022/12/23 07:09:26;;;;;;;;;;;;;;;;;;1877876;28;7889;-62
2022/12/23 07:10:24;;;;;;;;;;;;;;;;;;1879062;28;7196;-62
2022/12/23 07:11:21;;;;;;;;;;;;;;;;;;1888967;28;7010;-63
2022/12/23 07:12:18;;;;;;;;;;;;;;;;;;1890001;28;7006;-62
2022/12/23 07:13:16;;;;;;;;;;;;;;;;;;1887647;28;7084;-63
2022/12/23 07:14:13;;;;;;;;;;;;;;;;;;1883226;28;7152;-62
2022/12/23 07:15:11;;;;;;;;;;;;;;;;;;1889389;28;7148;-63
2022/12/23 07:16:08;;;;;;;;;;;;;;;;;;1884693;28;7025;-62
2022/12/23 07:17:06;;;;;;;;;;;;;;;;;;1885715;28;7048;-62
2022/12/23 07:18:03;;;;;;;;;;;;;;;;;;1887310;28;7006;-63
2022/12/23 07:19:01;;;;;;;;;;;;;;;;;;1889972;28;7110;-62
2022/12/23 07:19:58;;;;;;;;;;;;;;;;;;1887934;28;8006;-62
2022/12/23 07:20:58;;;;;;;;;;;;;;;;;;1882783;28;7013;-63
2022/12/23 07:21:56;;;;;;;;;;;;;;;;;;1882012;28;8042;-62
2022/12/23 07:22:54;;;;;;;;;;;;;;;;;;1888197;28;7309;-63